sensor_id;sensor_type;location;lat;lon;timestamp;P1;durP1;ratioP1;P2;durP2;ratioP2
75377;SDS011;63959;51.960;5.886;2023-03-01T00:01:00;6.75;;;2.88;;
75377;SDS011;63959;51.960;5.886;2023-03-01T00:03:29;6.25;;;2.90;;
75377;SDS011;63959;51.960;5.886;2023-03-01T00:06:01;7.70;;;3.58;;
75377;SDS011;63959;51.960;5.886;2023-03-01T00:08:43;7.07;;;3.15;;
75377;SDS011;63959;51.960;5.886;2023-03-01T00:11:15;6.53;;;3.00;;
75377;SDS011;63959;51.960;5.886;2023-03-01T00:13:48;8.05;;;3.47;;
75377;SDS011;63959;51.960;5.886;2023-03-01T00:16:21;6.60;;;2.80;;
75377;SDS011;63959;51.960;5.886;2023-03-01T00:18:52;6.85;;;2.80;;
75377;SDS011;63959;51.960;5.886;2023-03-01T00:21:24;7.22;;;3.30;;
75377;SDS011;63959;51.960;5.886;2023-03-01T00:23:54;7.25;;;3.42;;
75377;SDS011;63959;51.960;5.886;2023-03-01T00:26:23;9.38;;;4.32;;
75377;SDS011;63959;51.960;5.886;2023-03-01T00:28:53;8.27;;;3.28;;
75377;SDS011;63959;51.960;5.886;2023-03-01T00:31:23;6.60;;;2.85;;
75377;SDS011;63959;51.960;5.886;2023-03-01T00:33:52;6.18;;;2.92;;
75377;SDS011;63959;51.960;5.886;2023-03-01T00:36:25;7.15;;;3.45;;
75377;SDS011;63959;51.960;5.886;2023-03-01T00:38:55;6.03;;;2.67;;
75377;SDS011;63959;51.960;5.886;2023-03-01T00:41:23;6.97;;;3.15;;
75377;SDS011;63959;51.960;5.886;2023-03-01T00:43:53;6.10;;;2.97;;
75377;SDS011;63959;51.960;5.886;2023-03-01T00:46:22;7.25;;;3.03;;
75377;SDS011;63959;51.960;5.886;2023-03-01T00:48:52;7.90;;;3.15;;
75377;SDS011;63959;51.960;5.886;2023-03-01T00:51:22;7.50;;;3.42;;
75377;SDS011;63959;51.960;5.886;2023-03-01T00:53:55;6.15;;;2.85;;
75377;SDS011;63959;51.960;5.886;2023-03-01T00:56:25;6.80;;;2.63;;
75377;SDS011;63959;51.960;5.886;2023-03-01T00:58:54;8.23;;;4.00;;
75377;SDS011;63959;51.960;5.886;2023-03-01T01:01:24;7.32;;;2.88;;
75377;SDS011;63959;51.960;5.886;2023-03-01T01:03:55;6.07;;;2.78;;
75377;SDS011;63959;51.960;5.886;2023-03-01T01:06:25;5.03;;;1.95;;
75377;SDS011;63959;51.960;5.886;2023-03-01T01:08:57;4.78;;;2.00;;
75377;SDS011;63959;51.960;5.886;2023-03-01T01:11:27;7.43;;;2.72;;
75377;SDS011;63959;51.960;5.886;2023-03-01T01:13:56;5.03;;;2.20;;
75377;SDS011;63959;51.960;5.886;2023-03-01T01:16:26;7.97;;;3.00;;
75377;SDS011;63959;51.960;5.886;2023-03-01T01:18:55;6.82;;;3.33;;
75377;SDS011;63959;51.960;5.886;2023-03-01T01:21:24;7.85;;;2.55;;
75377;SDS011;63959;51.960;5.886;2023-03-01T01:23:53;5.43;;;2.40;;
75377;SDS011;63959;51.960;5.886;2023-03-01T01:26:25;6.88;;;2.65;;
75377;SDS011;63959;51.960;5.886;2023-03-01T01:28:54;7.43;;;2.90;;
75377;SDS011;63959;51.960;5.886;2023-03-01T01:31:24;8.98;;;3.85;;
75377;SDS011;63959;51.960;5.886;2023-03-01T01:33:54;5.82;;;3.10;;
75377;SDS011;63959;51.960;5.886;2023-03-01T01:36:23;7.07;;;3.25;;
75377;SDS011;63959;51.960;5.886;2023-03-01T01:38:55;10.52;;;3.75;;
75377;SDS011;63959;51.960;5.886;2023-03-01T01:41:27;7.90;;;3.58;;
75377;SDS011;63959;51.960;5.886;2023-03-01T01:46:40;7.35;;;3.80;;
75377;SDS011;63959;51.960;5.886;2023-03-01T01:49:15;7.80;;;3.70;;
75377;SDS011;63959;51.960;5.886;2023-03-01T01:51:46;7.20;;;3.35;;
75377;SDS011;63959;51.960;5.886;2023-03-01T01:54:18;10.40;;;4.68;;
75377;SDS011;63959;51.960;5.886;2023-03-01T01:56:52;8.93;;;3.85;;
75377;SDS011;63959;51.960;5.886;2023-03-01T01:59:21;11.82;;;5.10;;
75377;SDS011;63959;51.960;5.886;2023-03-01T02:01:52;8.98;;;4.28;;
75377;SDS011;63959;51.960;5.886;2023-03-01T02:04:21;8.63;;;4.18;;
75377;SDS011;63959;51.960;5.886;2023-03-01T02:06:51;7.65;;;3.65;;
75377;SDS011;63959;51.960;5.886;2023-03-01T02:09:22;10.75;;;5.50;;
75377;SDS011;63959;51.960;5.886;2023-03-01T02:11:54;8.93;;;4.03;;
75377;SDS011;63959;51.960;5.886;2023-03-01T02:14:23;8.38;;;3.22;;
75377;SDS011;63959;51.960;5.886;2023-03-01T02:16:52;8.13;;;4.43;;
75377;SDS011;63959;51.960;5.886;2023-03-01T02:19:25;8.02;;;4.18;;
75377;SDS011;63959;51.960;5.886;2023-03-01T02:21:56;9.55;;;4.40;;
75377;SDS011;63959;51.960;5.886;2023-03-01T02:24:28;11.23;;;4.90;;
75377;SDS011;63959;51.960;5.886;2023-03-01T02:27:03;11.48;;;4.53;;
75377;SDS011;63959;51.960;5.886;2023-03-01T02:29:35;9.07;;;4.80;;
75377;SDS011;63959;51.960;5.886;2023-03-01T02:32:05;8.55;;;4.05;;
75377;SDS011;63959;51.960;5.886;2023-03-01T02:34:36;10.20;;;4.85;;
75377;SDS011;63959;51.960;5.886;2023-03-01T02:37:07;9.23;;;4.65;;
75377;SDS011;63959;51.960;5.886;2023-03-01T02:39:39;7.10;;;3.55;;
75377;SDS011;63959;51.960;5.886;2023-03-01T02:42:11;10.38;;;4.63;;
75377;SDS011;63959;51.960;5.886;2023-03-01T02:44:43;8.50;;;4.97;;
75377;SDS011;63959;51.960;5.886;2023-03-01T02:47:12;7.88;;;4.10;;
75377;SDS011;63959;51.960;5.886;2023-03-01T02:49:41;7.32;;;3.20;;
75377;SDS011;63959;51.960;5.886;2023-03-01T02:52:17;8.63;;;4.03;;
75377;SDS011;63959;51.960;5.886;2023-03-01T02:54:50;8.25;;;3.40;;
75377;SDS011;63959;51.960;5.886;2023-03-01T02:57:21;8.75;;;3.90;;
75377;SDS011;63959;51.960;5.886;2023-03-01T02:59:53;10.00;;;4.90;;
75377;SDS011;63959;51.960;5.886;2023-03-01T03:02:23;11.93;;;5.13;;
75377;SDS011;63959;51.960;5.886;2023-03-01T03:05:04;8.45;;;3.47;;
75377;SDS011;63959;51.960;5.886;2023-03-01T03:07:34;7.90;;;3.50;;
75377;SDS011;63959;51.960;5.886;2023-03-01T03:10:06;6.18;;;2.97;;
75377;SDS011;63959;51.960;5.886;2023-03-01T03:12:36;6.95;;;3.17;;
75377;SDS011;63959;51.960;5.886;2023-03-01T03:15:09;8.38;;;3.67;;
75377;SDS011;63959;51.960;5.886;2023-03-01T03:17:41;8.02;;;4.25;;
75377;SDS011;63959;51.960;5.886;2023-03-01T03:20:11;6.25;;;2.72;;
75377;SDS011;63959;51.960;5.886;2023-03-01T03:22:44;7.75;;;3.15;;
75377;SDS011;63959;51.960;5.886;2023-03-01T03:25:13;8.27;;;4.05;;
75377;SDS011;63959;51.960;5.886;2023-03-01T03:27:43;7.93;;;4.00;;
75377;SDS011;63959;51.960;5.886;2023-03-01T03:30:16;10.48;;;5.30;;
75377;SDS011;63959;51.960;5.886;2023-03-01T03:32:47;7.63;;;3.50;;
75377;SDS011;63959;51.960;5.886;2023-03-01T03:35:20;6.05;;;2.85;;
75377;SDS011;63959;51.960;5.886;2023-03-01T03:37:50;7.68;;;3.67;;
75377;SDS011;63959;51.960;5.886;2023-03-01T03:40:33;6.72;;;2.88;;
75377;SDS011;63959;51.960;5.886;2023-03-01T03:43:02;6.63;;;3.30;;
75377;SDS011;63959;51.960;5.886;2023-03-01T03:45:34;9.45;;;4.88;;
75377;SDS011;63959;51.960;5.886;2023-03-01T03:48:04;7.53;;;4.00;;
75377;SDS011;63959;51.960;5.886;2023-03-01T03:50:35;6.30;;;2.97;;
75377;SDS011;63959;51.960;5.886;2023-03-01T03:53:07;7.47;;;3.88;;
75377;SDS011;63959;51.960;5.886;2023-03-01T03:55:36;8.75;;;4.40;;
75377;SDS011;63959;51.960;5.886;2023-03-01T03:58:05;8.98;;;4.05;;
75377;SDS011;63959;51.960;5.886;2023-03-01T04:00:38;7.13;;;3.90;;
75377;SDS011;63959;51.960;5.886;2023-03-01T04:03:08;9.05;;;4.05;;
75377;SDS011;63959;51.960;5.886;2023-03-01T04:05:37;8.40;;;3.72;;
75377;SDS011;63959;51.960;5.886;2023-03-01T04:08:06;8.35;;;3.90;;
75377;SDS011;63959;51.960;5.886;2023-03-01T04:10:35;9.10;;;4.20;;
75377;SDS011;63959;51.960;5.886;2023-03-01T04:13:06;8.23;;;3.90;;
75377;SDS011;63959;51.960;5.886;2023-03-01T04:15:35;8.30;;;4.13;;
75377;SDS011;63959;51.960;5.886;2023-03-01T04:18:06;8.10;;;3.90;;
75377;SDS011;63959;51.960;5.886;2023-03-01T04:20:35;9.07;;;3.90;;
75377;SDS011;63959;51.960;5.886;2023-03-01T04:23:06;13.75;;;5.03;;
75377;SDS011;63959;51.960;5.886;2023-03-01T04:25:39;6.95;;;3.58;;
75377;SDS011;63959;51.960;5.886;2023-03-01T04:28:08;7.82;;;4.25;;
75377;SDS011;63959;51.960;5.886;2023-03-01T04:30:38;7.82;;;3.60;;
75377;SDS011;63959;51.960;5.886;2023-03-01T04:33:10;11.52;;;4.50;;
75377;SDS011;63959;51.960;5.886;2023-03-01T04:35:41;7.88;;;3.70;;
75377;SDS011;63959;51.960;5.886;2023-03-01T04:38:09;10.40;;;3.60;;
75377;SDS011;63959;51.960;5.886;2023-03-01T04:40:39;7.93;;;4.20;;
75377;SDS011;63959;51.960;5.886;2023-03-01T04:43:09;9.70;;;3.67;;
75377;SDS011;63959;51.960;5.886;2023-03-01T04:45:38;9.05;;;4.40;;
75377;SDS011;63959;51.960;5.886;2023-03-01T04:48:09;8.02;;;3.50;;
75377;SDS011;63959;51.960;5.886;2023-03-01T04:50:38;9.80;;;4.80;;
75377;SDS011;63959;51.960;5.886;2023-03-01T04:53:07;9.90;;;4.07;;
75377;SDS011;63959;51.960;5.886;2023-03-01T04:55:35;8.60;;;3.78;;
75377;SDS011;63959;51.960;5.886;2023-03-01T04:58:04;6.72;;;3.10;;
75377;SDS011;63959;51.960;5.886;2023-03-01T05:00:33;11.23;;;4.90;;
75377;SDS011;63959;51.960;5.886;2023-03-01T05:03:02;7.95;;;2.90;;
75377;SDS011;63959;51.960;5.886;2023-03-01T05:05:33;7.43;;;3.40;;
75377;SDS011;63959;51.960;5.886;2023-03-01T05:08:03;8.40;;;3.35;;
75377;SDS011;63959;51.960;5.886;2023-03-01T05:10:33;7.45;;;2.95;;
75377;SDS011;63959;51.960;5.886;2023-03-01T05:13:04;8.80;;;4.20;;
75377;SDS011;63959;51.960;5.886;2023-03-01T05:15:32;8.27;;;4.05;;
75377;SDS011;63959;51.960;5.886;2023-03-01T05:18:02;8.90;;;4.53;;
75377;SDS011;63959;51.960;5.886;2023-03-01T05:20:39;9.60;;;4.10;;
75377;SDS011;63959;51.960;5.886;2023-03-01T05:23:08;6.82;;;2.72;;
75377;SDS011;63959;51.960;5.886;2023-03-01T05:25:37;8.38;;;3.10;;
75377;SDS011;63959;51.960;5.886;2023-03-01T05:28:06;7.22;;;3.67;;
75377;SDS011;63959;51.960;5.886;2023-03-01T05:30:35;8.55;;;3.60;;
75377;SDS011;63959;51.960;5.886;2023-03-01T05:33:04;10.20;;;5.13;;
75377;SDS011;63959;51.960;5.886;2023-03-01T05:35:41;8.40;;;3.83;;
75377;SDS011;63959;51.960;5.886;2023-03-01T05:38:11;7.80;;;3.45;;
75377;SDS011;63959;51.960;5.886;2023-03-01T05:40:41;7.32;;;3.03;;
75377;SDS011;63959;51.960;5.886;2023-03-01T05:43:10;8.52;;;3.65;;
75377;SDS011;63959;51.960;5.886;2023-03-01T05:45:39;9.30;;;4.85;;
75377;SDS011;63959;51.960;5.886;2023-03-01T05:48:08;8.48;;;3.80;;
75377;SDS011;63959;51.960;5.886;2023-03-01T05:50:37;8.77;;;4.38;;
75377;SDS011;63959;51.960;5.886;2023-03-01T05:53:12;7.88;;;3.33;;
75377;SDS011;63959;51.960;5.886;2023-03-01T05:55:41;7.57;;;3.47;;
75377;SDS011;63959;51.960;5.886;2023-03-01T05:58:12;9.98;;;4.38;;
75377;SDS011;63959;51.960;5.886;2023-03-01T06:00:42;7.43;;;4.00;;
75377;SDS011;63959;51.960;5.886;2023-03-01T06:03:12;8.98;;;3.70;;
75377;SDS011;63959;51.960;5.886;2023-03-01T06:05:41;8.50;;;3.78;;
75377;SDS011;63959;51.960;5.886;2023-03-01T06:08:13;6.38;;;2.85;;
75377;SDS011;63959;51.960;5.886;2023-03-01T06:10:42;8.48;;;3.63;;
75377;SDS011;63959;51.960;5.886;2023-03-01T06:13:11;11.88;;;5.93;;
75377;SDS011;63959;51.960;5.886;2023-03-01T06:15:39;8.32;;;3.63;;
75377;SDS011;63959;51.960;5.886;2023-03-01T06:18:08;7.43;;;3.08;;
75377;SDS011;63959;51.960;5.886;2023-03-01T06:20:37;8.02;;;3.53;;
75377;SDS011;63959;51.960;5.886;2023-03-01T06:23:05;8.73;;;4.30;;
75377;SDS011;63959;51.960;5.886;2023-03-01T06:25:38;10.55;;;4.90;;
75377;SDS011;63959;51.960;5.886;2023-03-01T06:28:06;7.95;;;3.85;;
75377;SDS011;63959;51.960;5.886;2023-03-01T06:30:35;9.90;;;3.65;;
75377;SDS011;63959;51.960;5.886;2023-03-01T06:33:04;12.30;;;4.05;;
75377;SDS011;63959;51.960;5.886;2023-03-01T06:35:32;10.20;;;5.68;;
75377;SDS011;63959;51.960;5.886;2023-03-01T06:38:02;8.00;;;3.80;;
75377;SDS011;63959;51.960;5.886;2023-03-01T06:40:32;8.48;;;3.97;;
75377;SDS011;63959;51.960;5.886;2023-03-01T06:43:04;6.57;;;3.20;;
75377;SDS011;63959;51.960;5.886;2023-03-01T06:45:33;9.52;;;4.28;;
75377;SDS011;63959;51.960;5.886;2023-03-01T06:48:02;7.85;;;3.97;;
75377;SDS011;63959;51.960;5.886;2023-03-01T06:50:32;9.18;;;4.88;;
75377;SDS011;63959;51.960;5.886;2023-03-01T06:53:01;11.90;;;5.72;;
75377;SDS011;63959;51.960;5.886;2023-03-01T06:55:30;8.65;;;4.53;;
75377;SDS011;63959;51.960;5.886;2023-03-01T06:57:59;9.82;;;5.25;;
75377;SDS011;63959;51.960;5.886;2023-03-01T07:00:31;10.38;;;4.82;;
75377;SDS011;63959;51.960;5.886;2023-03-01T07:03:00;10.10;;;5.28;;
75377;SDS011;63959;51.960;5.886;2023-03-01T07:05:29;10.57;;;5.57;;
75377;SDS011;63959;51.960;5.886;2023-03-01T07:07:58;11.85;;;5.35;;
75377;SDS011;63959;51.960;5.886;2023-03-01T07:10:26;10.05;;;4.20;;
75377;SDS011;63959;51.960;5.886;2023-03-01T07:12:57;9.50;;;4.88;;
75377;SDS011;63959;51.960;5.886;2023-03-01T07:15:26;9.35;;;4.95;;
75377;SDS011;63959;51.960;5.886;2023-03-01T07:17:58;9.00;;;4.38;;
75377;SDS011;63959;51.960;5.886;2023-03-01T07:20:27;9.98;;;4.65;;
75377;SDS011;63959;51.960;5.886;2023-03-01T07:22:56;9.18;;;4.28;;
75377;SDS011;63959;51.960;5.886;2023-03-01T07:25:25;10.05;;;4.82;;
75377;SDS011;63959;51.960;5.886;2023-03-01T07:27:54;12.27;;;5.10;;
75377;SDS011;63959;51.960;5.886;2023-03-01T07:30:22;8.85;;;4.85;;
75377;SDS011;63959;51.960;5.886;2023-03-01T07:32:54;11.00;;;4.55;;
75377;SDS011;63959;51.960;5.886;2023-03-01T07:35:25;7.70;;;4.32;;
75377;SDS011;63959;51.960;5.886;2023-03-01T07:37:54;12.45;;;5.05;;
75377;SDS011;63959;51.960;5.886;2023-03-01T07:40:23;8.90;;;4.50;;
75377;SDS011;63959;51.960;5.886;2023-03-01T07:42:55;10.43;;;4.63;;
75377;SDS011;63959;51.960;5.886;2023-03-01T07:45:24;11.10;;;5.30;;
75377;SDS011;63959;51.960;5.886;2023-03-01T07:47:53;7.82;;;4.05;;
75377;SDS011;63959;51.960;5.886;2023-03-01T07:50:26;9.30;;;5.13;;
75377;SDS011;63959;51.960;5.886;2023-03-01T07:53:01;12.40;;;4.93;;
75377;SDS011;63959;51.960;5.886;2023-03-01T07:55:36;9.68;;;4.88;;
75377;SDS011;63959;51.960;5.886;2023-03-01T07:58:04;12.38;;;5.68;;
75377;SDS011;63959;51.960;5.886;2023-03-01T08:00:33;9.30;;;4.95;;
75377;SDS011;63959;51.960;5.886;2023-03-01T08:03:02;8.43;;;4.72;;
75377;SDS011;63959;51.960;5.886;2023-03-01T08:05:34;10.88;;;5.53;;
75377;SDS011;63959;51.960;5.886;2023-03-01T08:08:04;11.63;;;5.20;;
75377;SDS011;63959;51.960;5.886;2023-03-01T08:10:35;10.73;;;5.72;;
75377;SDS011;63959;51.960;5.886;2023-03-01T08:13:05;14.55;;;5.00;;
75377;SDS011;63959;51.960;5.886;2023-03-01T08:15:34;11.90;;;6.40;;
75377;SDS011;63959;51.960;5.886;2023-03-01T08:18:02;10.15;;;4.50;;
75377;SDS011;63959;51.960;5.886;2023-03-01T08:20:35;10.05;;;4.80;;
75377;SDS011;63959;51.960;5.886;2023-03-01T08:23:07;9.32;;;5.20;;
75377;SDS011;63959;51.960;5.886;2023-03-01T08:25:36;8.60;;;4.70;;
75377;SDS011;63959;51.960;5.886;2023-03-01T08:28:06;10.30;;;5.13;;
75377;SDS011;63959;51.960;5.886;2023-03-01T08:30:38;11.25;;;5.32;;
75377;SDS011;63959;51.960;5.886;2023-03-01T08:33:07;10.80;;;4.53;;
75377;SDS011;63959;51.960;5.886;2023-03-01T08:35:39;9.50;;;5.15;;
75377;SDS011;63959;51.960;5.886;2023-03-01T08:38:08;8.75;;;4.78;;
75377;SDS011;63959;51.960;5.886;2023-03-01T08:40:40;11.30;;;5.30;;
75377;SDS011;63959;51.960;5.886;2023-03-01T08:43:09;9.75;;;4.60;;
75377;SDS011;63959;51.960;5.886;2023-03-01T08:45:37;11.25;;;5.25;;
75377;SDS011;63959;51.960;5.886;2023-03-01T08:48:08;10.23;;;5.05;;
75377;SDS011;63959;51.960;5.886;2023-03-01T08:50:49;10.20;;;5.88;;
75377;SDS011;63959;51.960;5.886;2023-03-01T08:55:48;11.98;;;5.15;;
75377;SDS011;63959;51.960;5.886;2023-03-01T08:58:17;10.25;;;5.00;;
75377;SDS011;63959;51.960;5.886;2023-03-01T09:00:49;11.30;;;5.05;;
75377;SDS011;63959;51.960;5.886;2023-03-01T09:03:17;8.75;;;4.78;;
75377;SDS011;63959;51.960;5.886;2023-03-01T09:05:48;10.63;;;5.50;;
75377;SDS011;63959;51.960;5.886;2023-03-01T09:08:18;11.77;;;5.00;;
75377;SDS011;63959;51.960;5.886;2023-03-01T09:10:47;8.80;;;4.30;;
75377;SDS011;63959;51.960;5.886;2023-03-01T09:13:16;7.80;;;4.28;;
75377;SDS011;63959;51.960;5.886;2023-03-01T09:15:44;8.93;;;4.63;;
75377;SDS011;63959;51.960;5.886;2023-03-01T09:18:16;10.25;;;4.32;;
75377;SDS011;63959;51.960;5.886;2023-03-01T09:20:45;9.90;;;4.80;;
75377;SDS011;63959;51.960;5.886;2023-03-01T09:23:16;8.48;;;4.72;;
75377;SDS011;63959;51.960;5.886;2023-03-01T09:25:45;8.30;;;4.35;;
75377;SDS011;63959;51.960;5.886;2023-03-01T09:28:16;9.82;;;4.30;;
75377;SDS011;63959;51.960;5.886;2023-03-01T09:30:57;9.07;;;4.07;;
75377;SDS011;63959;51.960;5.886;2023-03-01T09:33:26;8.75;;;4.50;;
75377;SDS011;63959;51.960;5.886;2023-03-01T09:35:58;11.55;;;4.85;;
75377;SDS011;63959;51.960;5.886;2023-03-01T09:38:29;10.30;;;4.95;;
75377;SDS011;63959;51.960;5.886;2023-03-01T09:40:58;8.68;;;4.80;;
75377;SDS011;63959;51.960;5.886;2023-03-01T09:43:29;14.23;;;5.40;;
75377;SDS011;63959;51.960;5.886;2023-03-01T09:46:01;10.52;;;5.00;;
75377;SDS011;63959;51.960;5.886;2023-03-01T09:48:33;11.27;;;5.68;;
75377;SDS011;63959;51.960;5.886;2023-03-01T09:51:03;11.20;;;5.55;;
75377;SDS011;63959;51.960;5.886;2023-03-01T09:53:40;11.90;;;5.60;;
75377;SDS011;63959;51.960;5.886;2023-03-01T09:56:14;11.45;;;5.93;;
75377;SDS011;63959;51.960;5.886;2023-03-01T09:58:49;10.82;;;5.90;;
75377;SDS011;63959;51.960;5.886;2023-03-01T10:04:12;10.07;;;5.25;;
75377;SDS011;63959;51.960;5.886;2023-03-01T10:06:44;10.05;;;5.40;;
75377;SDS011;63959;51.960;5.886;2023-03-01T10:09:18;10.27;;;5.57;;
75377;SDS011;63959;51.960;5.886;2023-03-01T10:11:48;11.60;;;5.75;;
75377;SDS011;63959;51.960;5.886;2023-03-01T10:14:27;13.23;;;6.00;;
75377;SDS011;63959;51.960;5.886;2023-03-01T10:16:58;12.88;;;6.57;;
75377;SDS011;63959;51.960;5.886;2023-03-01T10:19:30;15.13;;;6.13;;
75377;SDS011;63959;51.960;5.886;2023-03-01T10:22:02;12.30;;;5.88;;
75377;SDS011;63959;51.960;5.886;2023-03-01T10:24:34;10.80;;;5.43;;
75377;SDS011;63959;51.960;5.886;2023-03-01T10:27:05;12.73;;;6.00;;
75377;SDS011;63959;51.960;5.886;2023-03-01T10:29:37;11.10;;;5.10;;
75377;SDS011;63959;51.960;5.886;2023-03-01T10:32:08;10.00;;;4.72;;
75377;SDS011;63959;51.960;5.886;2023-03-01T10:34:45;8.85;;;4.70;;
75377;SDS011;63959;51.960;5.886;2023-03-01T10:37:15;9.32;;;4.88;;
75377;SDS011;63959;51.960;5.886;2023-03-01T10:39:57;9.23;;;4.82;;
75377;SDS011;63959;51.960;5.886;2023-03-01T10:42:27;9.05;;;4.72;;
75377;SDS011;63959;51.960;5.886;2023-03-01T10:44:56;11.90;;;5.85;;
75377;SDS011;63959;51.960;5.886;2023-03-01T10:47:26;9.68;;;5.07;;
75377;SDS011;63959;51.960;5.886;2023-03-01T10:49:59;11.85;;;5.00;;
75377;SDS011;63959;51.960;5.886;2023-03-01T10:52:30;9.63;;;5.10;;
75377;SDS011;63959;51.960;5.886;2023-03-01T10:55:02;9.23;;;4.95;;
75377;SDS011;63959;51.960;5.886;2023-03-01T10:57:36;9.77;;;5.00;;
75377;SDS011;63959;51.960;5.886;2023-03-01T11:03:02;9.43;;;4.80;;
75377;SDS011;63959;51.960;5.886;2023-03-01T11:05:35;8.18;;;4.25;;
75377;SDS011;63959;51.960;5.886;2023-03-01T11:08:04;8.70;;;4.72;;
75377;SDS011;63959;51.960;5.886;2023-03-01T11:10:39;9.23;;;5.03;;
75377;SDS011;63959;51.960;5.886;2023-03-01T11:13:08;9.10;;;5.03;;
75377;SDS011;63959;51.960;5.886;2023-03-01T11:15:42;10.75;;;4.80;;
75377;SDS011;63959;51.960;5.886;2023-03-01T11:18:19;9.77;;;4.63;;
75377;SDS011;63959;51.960;5.886;2023-03-01T11:20:51;8.43;;;4.63;;
75377;SDS011;63959;51.960;5.886;2023-03-01T11:23:24;8.70;;;4.82;;
75377;SDS011;63959;51.960;5.886;2023-03-01T11:26:04;8.27;;;4.50;;
75377;SDS011;63959;51.960;5.886;2023-03-01T11:28:34;8.68;;;4.65;;
75377;SDS011;63959;51.960;5.886;2023-03-01T11:31:05;8.70;;;4.43;;
75377;SDS011;63959;51.960;5.886;2023-03-01T11:33:35;8.63;;;4.18;;
75377;SDS011;63959;51.960;5.886;2023-03-01T11:36:06;9.32;;;4.30;;
75377;SDS011;63959;51.960;5.886;2023-03-01T11:38:56;7.65;;;4.47;;
75377;SDS011;63959;51.960;5.886;2023-03-01T11:41:30;9.27;;;4.13;;
75377;SDS011;63959;51.960;5.886;2023-03-01T11:44:01;11.30;;;4.25;;
75377;SDS011;63959;51.960;5.886;2023-03-01T11:46:41;11.20;;;4.22;;
75377;SDS011;63959;51.960;5.886;2023-03-01T11:49:24;9.25;;;4.10;;
75377;SDS011;63959;51.960;5.886;2023-03-01T11:52:00;10.18;;;4.25;;
75377;SDS011;63959;51.960;5.886;2023-03-01T11:54:33;10.05;;;4.85;;
75377;SDS011;63959;51.960;5.886;2023-03-01T11:57:13;9.80;;;4.57;;
75377;SDS011;63959;51.960;5.886;2023-03-01T12:00:03;7.65;;;4.10;;
75377;SDS011;63959;51.960;5.886;2023-03-01T12:02:46;6.97;;;4.07;;
75377;SDS011;63959;51.960;5.886;2023-03-01T12:08:05;7.38;;;3.75;;
75377;SDS011;63959;51.960;5.886;2023-03-01T12:10:37;8.65;;;4.25;;
75377;SDS011;63959;51.960;5.886;2023-03-01T12:13:21;8.60;;;4.30;;
75377;SDS011;63959;51.960;5.886;2023-03-01T12:15:57;10.82;;;4.55;;
75377;SDS011;63959;51.960;5.886;2023-03-01T12:21:19;8.75;;;4.50;;
75377;SDS011;63959;51.960;5.886;2023-03-01T12:24:01;8.43;;;4.13;;
75377;SDS011;63959;51.960;5.886;2023-03-01T12:26:35;9.48;;;4.82;;
75377;SDS011;63959;51.960;5.886;2023-03-01T12:29:14;7.80;;;4.43;;
75377;SDS011;63959;51.960;5.886;2023-03-01T12:34:46;8.75;;;4.47;;
75377;SDS011;63959;51.960;5.886;2023-03-01T12:39:49;9.90;;;4.53;;
75377;SDS011;63959;51.960;5.886;2023-03-01T12:42:21;7.50;;;3.80;;
75377;SDS011;63959;51.960;5.886;2023-03-01T12:45:05;9.07;;;4.20;;
75377;SDS011;63959;51.960;5.886;2023-03-01T12:47:38;7.55;;;3.83;;
75377;SDS011;63959;51.960;5.886;2023-03-01T12:50:23;8.43;;;3.92;;
75377;SDS011;63959;51.960;5.886;2023-03-01T12:52:54;6.85;;;3.90;;
75377;SDS011;63959;51.960;5.886;2023-03-01T12:55:26;8.23;;;3.92;;
75377;SDS011;63959;51.960;5.886;2023-03-01T12:57:59;8.65;;;4.20;;
75377;SDS011;63959;51.960;5.886;2023-03-01T13:00:34;8.20;;;3.90;;
75377;SDS011;63959;51.960;5.886;2023-03-01T13:03:06;8.25;;;4.40;;
75377;SDS011;63959;51.960;5.886;2023-03-01T13:05:42;7.13;;;3.90;;
75377;SDS011;63959;51.960;5.886;2023-03-01T13:08:16;9.00;;;4.05;;
75377;SDS011;63959;51.960;5.886;2023-03-01T13:10:51;7.85;;;3.95;;
75377;SDS011;63959;51.960;5.886;2023-03-01T13:13:24;9.75;;;4.25;;
75377;SDS011;63959;51.960;5.886;2023-03-01T13:15:55;9.43;;;4.13;;
75377;SDS011;63959;51.960;5.886;2023-03-01T13:18:29;7.57;;;4.03;;
75377;SDS011;63959;51.960;5.886;2023-03-01T13:20:58;8.23;;;4.03;;
75377;SDS011;63959;51.960;5.886;2023-03-01T13:23:33;6.93;;;3.72;;
75377;SDS011;63959;51.960;5.886;2023-03-01T13:26:07;9.85;;;4.35;;
75377;SDS011;63959;51.960;5.886;2023-03-01T13:37:10;9.90;;;4.38;;
75377;SDS011;63959;51.960;5.886;2023-03-01T13:39:46;7.97;;;3.90;;
75377;SDS011;63959;51.960;5.886;2023-03-01T13:42:30;7.13;;;4.20;;
75377;SDS011;63959;51.960;5.886;2023-03-01T13:45:00;7.93;;;4.43;;
75377;SDS011;63959;51.960;5.886;2023-03-01T13:47:29;7.95;;;3.78;;
75377;SDS011;63959;51.960;5.886;2023-03-01T13:49:59;8.23;;;4.28;;
75377;SDS011;63959;51.960;5.886;2023-03-01T13:55:19;10.07;;;4.13;;
75377;SDS011;63959;51.960;5.886;2023-03-01T14:00:32;7.80;;;3.95;;
75377;SDS011;63959;51.960;5.886;2023-03-01T14:03:08;8.63;;;3.83;;
75377;SDS011;63959;51.960;5.886;2023-03-01T14:05:37;7.53;;;4.00;;
75377;SDS011;63959;51.960;5.886;2023-03-01T14:08:17;9.95;;;4.10;;
75377;SDS011;63959;51.960;5.886;2023-03-01T14:10:53;7.35;;;3.75;;
75377;SDS011;63959;51.960;5.886;2023-03-01T14:13:25;9.25;;;3.90;;
75377;SDS011;63959;51.960;5.886;2023-03-01T14:16:03;8.73;;;4.43;;
75377;SDS011;63959;51.960;5.886;2023-03-01T14:18:38;10.05;;;4.28;;
75377;SDS011;63959;51.960;5.886;2023-03-01T14:21:12;8.75;;;3.90;;
75377;SDS011;63959;51.960;5.886;2023-03-01T14:23:42;10.32;;;4.28;;
75377;SDS011;63959;51.960;5.886;2023-03-01T14:26:22;7.70;;;3.90;;
75377;SDS011;63959;51.960;5.886;2023-03-01T14:28:51;9.93;;;4.38;;
75377;SDS011;63959;51.960;5.886;2023-03-01T14:31:35;9.60;;;4.25;;
75377;SDS011;63959;51.960;5.886;2023-03-01T14:34:05;8.60;;;4.18;;
75377;SDS011;63959;51.960;5.886;2023-03-01T14:36:39;10.30;;;4.72;;
75377;SDS011;63959;51.960;5.886;2023-03-01T14:39:15;9.27;;;4.28;;
75377;SDS011;63959;51.960;5.886;2023-03-01T14:41:47;7.28;;;3.60;;
75377;SDS011;63959;51.960;5.886;2023-03-01T14:44:31;12.32;;;4.35;;
75377;SDS011;63959;51.960;5.886;2023-03-01T14:47:04;9.30;;;4.47;;
75377;SDS011;63959;51.960;5.886;2023-03-01T14:49:38;8.60;;;4.15;;
75377;SDS011;63959;51.960;5.886;2023-03-01T14:52:16;9.48;;;4.35;;
75377;SDS011;63959;51.960;5.886;2023-03-01T14:54:46;8.75;;;4.30;;
75377;SDS011;63959;51.960;5.886;2023-03-01T14:57:28;7.32;;;4.05;;
75377;SDS011;63959;51.960;5.886;2023-03-01T14:59:58;8.63;;;4.50;;
75377;SDS011;63959;51.960;5.886;2023-03-01T15:02:29;8.82;;;4.13;;
75377;SDS011;63959;51.960;5.886;2023-03-01T15:05:00;8.70;;;3.97;;
75377;SDS011;63959;51.960;5.886;2023-03-01T15:07:39;9.00;;;4.10;;
75377;SDS011;63959;51.960;5.886;2023-03-01T15:10:17;8.48;;;3.67;;
75377;SDS011;63959;51.960;5.886;2023-03-01T15:12:55;8.98;;;3.70;;
75377;SDS011;63959;51.960;5.886;2023-03-01T15:15:32;8.25;;;4.15;;
75377;SDS011;63959;51.960;5.886;2023-03-01T15:18:01;7.32;;;3.75;;
75377;SDS011;63959;51.960;5.886;2023-03-01T15:20:31;9.90;;;4.15;;
75377;SDS011;63959;51.960;5.886;2023-03-01T15:23:01;7.05;;;3.85;;
75377;SDS011;63959;51.960;5.886;2023-03-01T15:25:31;6.93;;;3.53;;
75377;SDS011;63959;51.960;5.886;2023-03-01T15:28:03;6.65;;;3.60;;
75377;SDS011;63959;51.960;5.886;2023-03-01T15:30:32;8.02;;;4.07;;
75377;SDS011;63959;51.960;5.886;2023-03-01T15:35:50;8.05;;;3.60;;
75377;SDS011;63959;51.960;5.886;2023-03-01T15:38:32;8.48;;;4.07;;
75377;SDS011;63959;51.960;5.886;2023-03-01T15:41:22;9.00;;;3.58;;
75377;SDS011;63959;51.960;5.886;2023-03-01T15:43:54;7.07;;;3.38;;
75377;SDS011;63959;51.960;5.886;2023-03-01T15:46:24;6.90;;;3.60;;
75377;SDS011;63959;51.960;5.886;2023-03-01T15:48:56;7.65;;;3.60;;
75377;SDS011;63959;51.960;5.886;2023-03-01T15:51:30;7.13;;;3.85;;